createdAt,value
2023-02-24T00:00:47.392Z,80.66
2023-02-24T00:02:01.760Z,81.13
2023-02-24T00:03:11.664Z,81.00
2023-02-24T00:04:21.165Z,80.81
2023-02-24T00:05:26.117Z,81.06
2023-02-24T00:06:37.286Z,81.47
2023-02-24T00:07:41.846Z,81.29
2023-02-24T00:08:47.851Z,81.22
2023-02-24T00:10:01.371Z,80.81
2023-02-24T00:11:14.992Z,81.11
2023-02-24T00:12:21.296Z,80.76
2023-02-24T00:13:26.381Z,80.80
2023-02-24T00:14:36.575Z,80.79
2023-02-24T00:15:40.841Z,80.82
2023-02-24T00:16:46.915Z,80.67
2023-02-24T00:17:51.420Z,80.55
2023-02-24T00:18:55.747Z,80.49
2023-02-24T00:20:00.053Z,80.85
2023-02-24T00:21:17.211Z,80.57
2023-02-24T00:22:21.824Z,80.84
2023-02-24T00:23:26.195Z,81.29
2023-02-24T00:24:31.519Z,81.09
2023-02-24T00:25:36.336Z,81.16
2023-02-24T00:26:41.752Z,81.47
2023-02-24T00:27:46.139Z,81.23
2023-02-24T00:28:50.388Z,81.27
2023-02-24T00:29:56.117Z,80.98
2023-02-24T00:31:20.678Z,80.98
2023-02-24T00:32:25.444Z,81.10
2023-02-24T00:33:31.231Z,81.01
2023-02-24T00:34:37.814Z,81.05
2023-02-24T00:35:42.244Z,81.18
2023-02-24T00:36:46.134Z,80.80
2023-02-24T00:37:51.655Z,80.85
2023-02-24T00:39:11.281Z,81.11
2023-02-24T00:40:23.769Z,81.19
2023-02-24T00:41:32.926Z,80.78
2023-02-24T00:42:40.353Z,80.90
2023-02-24T00:43:49.989Z,81.22
2023-02-24T00:44:54.702Z,81.00
2023-02-24T00:46:02.862Z,81.15
2023-02-24T00:47:10.785Z,81.07
2023-02-24T00:48:15.932Z,81.28
2023-02-24T00:49:21.423Z,81.13
2023-02-24T00:50:25.671Z,81.36
2023-02-24T00:51:29.505Z,81.27
2023-02-24T00:52:33.570Z,81.17
2023-02-24T00:53:40.480Z,81.45
2023-02-24T00:54:51.613Z,81.44
2023-02-24T00:56:02.566Z,81.30
2023-02-24T00:57:08.503Z,81.42
2023-02-24T00:58:14.052Z,81.32
2023-02-24T00:59:19.044Z,81.53
2023-02-24T01:00:23.836Z,81.73
2023-02-24T01:01:33.174Z,81.49
2023-02-24T01:02:38.638Z,81.60
2023-02-24T01:03:42.973Z,81.54
2023-02-24T01:04:47.321Z,81.35
2023-02-24T01:05:51.682Z,81.82
2023-02-24T01:07:00.565Z,81.55
2023-02-24T01:08:05.303Z,81.87
2023-02-24T01:09:20.375Z,81.71
2023-02-24T01:10:27.188Z,81.48
2023-02-24T01:11:54.696Z,81.66
2023-02-24T01:12:58.848Z,81.87
2023-02-24T01:14:13.906Z,81.67
2023-02-24T01:15:21.389Z,81.80
2023-02-24T01:16:25.888Z,81.53
2023-02-24T01:17:30.128Z,81.72
2023-02-24T01:18:34.729Z,81.40
2023-02-24T01:19:38.829Z,81.55
2023-02-24T01:20:42.931Z,81.79
2023-02-24T01:21:47.652Z,81.75
2023-02-24T01:22:56.925Z,81.70
2023-02-24T01:24:01.235Z,81.95
2023-02-24T01:25:08.168Z,81.79
2023-02-24T01:26:11.888Z,81.77
2023-02-24T01:27:19.603Z,81.83
2023-02-24T01:28:23.668Z,81.91
2023-02-24T01:29:27.680Z,81.90
2023-02-24T01:30:31.541Z,81.88
2023-02-24T01:31:36.532Z,81.93
2023-02-24T01:32:40.994Z,81.89
2023-02-24T01:33:46.243Z,81.90
2023-02-24T01:34:54.022Z,81.96
2023-02-24T01:35:58.560Z,81.92
2023-02-24T01:37:02.704Z,82.07
2023-02-24T01:38:06.607Z,81.68
2023-02-24T01:39:14.553Z,81.89
2023-02-24T01:40:21.727Z,81.76
2023-02-24T01:41:31.344Z,81.80
2023-02-24T01:42:35.813Z,82.14
2023-02-24T01:44:29.740Z,82.20
2023-02-24T01:45:36.944Z,82.49
2023-02-24T01:46:44.555Z,82.21
2023-02-24T01:47:51.678Z,82.22
2023-02-24T01:49:03.482Z,82.27
2023-02-24T01:50:15.242Z,82.23
2023-02-24T01:51:19.902Z,82.13
2023-02-24T01:52:34.859Z,82.53
2023-02-24T01:53:39.472Z,82.03
2023-02-24T01:54:54.850Z,82.05
2023-02-24T01:55:59.567Z,82.25
2023-02-24T01:57:06.065Z,82.35
2023-02-24T01:58:28.820Z,82.20
2023-02-24T01:59:38.135Z,82.30
2023-02-24T02:00:48.462Z,82.37
2023-02-24T02:02:04.464Z,82.21
2023-02-24T02:03:31.508Z,82.73
2023-02-24T02:04:57.470Z,82.33
2023-02-24T02:06:09.220Z,82.77
2023-02-24T02:07:20.064Z,82.59
2023-02-24T02:08:25.213Z,82.64
2023-02-24T02:09:29.891Z,82.79
2023-02-24T02:10:35.100Z,82.83
2023-02-24T02:11:38.990Z,82.79
2023-02-24T02:12:45.185Z,82.36
2023-02-24T02:13:52.884Z,82.58
2023-02-24T02:14:59.864Z,82.62
2023-02-24T02:16:38.550Z,82.50
2023-02-24T02:17:58.014Z,82.32
2023-02-24T02:19:16.673Z,82.52
2023-02-24T02:20:50.162Z,82.39
2023-02-24T02:22:02.931Z,82.57
2023-02-24T02:23:58.171Z,82.40
2023-02-24T02:25:34.235Z,82.82
2023-02-24T02:26:50.458Z,82.68
2023-02-24T02:28:15.719Z,82.61
2023-02-24T02:29:58.472Z,82.34
2023-02-24T02:31:21.217Z,82.58
2023-02-24T02:33:02.302Z,82.27
2023-02-24T02:35:06.956Z,82.39
2023-02-24T02:36:43.855Z,82.25
2023-02-24T02:38:12.229Z,82.37
2023-02-24T02:39:59.346Z,82.32
2023-02-24T02:41:26.555Z,81.95
2023-02-24T02:43:27.637Z,82.10
2023-02-24T02:44:45.350Z,81.96
2023-02-24T02:46:05.212Z,82.16
2023-02-24T02:47:35.323Z,82.26
2023-02-24T02:48:58.291Z,82.37
2023-02-24T02:50:28.002Z,82.32
2023-02-24T02:51:41.722Z,82.37
2023-02-24T02:53:06.301Z,82.34
2023-02-24T02:54:25.157Z,82.03
2023-02-24T02:55:54.073Z,82.00
2023-02-24T02:57:21.042Z,82.35
2023-02-24T02:58:34.299Z,82.20
2023-02-24T02:59:57.327Z,82.56
2023-02-24T03:01:07.604Z,82.35
2023-02-24T03:02:15.639Z,82.41
2023-02-24T03:03:20.057Z,82.34
2023-02-24T03:04:26.867Z,82.12
2023-02-24T03:05:47.552Z,82.45
2023-02-24T03:07:02.145Z,81.97
2023-02-24T03:08:12.247Z,82.11
2023-02-24T03:09:32.660Z,82.07
2023-02-24T03:10:37.558Z,82.10
2023-02-24T03:12:00.002Z,82.16
2023-02-24T03:13:11.214Z,82.01
2023-02-24T03:14:21.895Z,82.13
2023-02-24T03:15:30.488Z,81.92
2023-02-24T03:16:36.018Z,81.96
2023-02-24T03:17:45.809Z,82.15
2023-02-24T03:19:06.390Z,81.80
2023-02-24T03:20:23.172Z,82.05
2023-02-24T03:21:45.849Z,81.80
2023-02-24T03:23:03.734Z,82.15
2023-02-24T03:24:09.681Z,81.83
2023-02-24T03:25:14.432Z,81.66
2023-02-24T03:26:46.751Z,82.14
2023-02-24T03:27:58.373Z,82.08
2023-02-24T03:29:24.420Z,82.14
2023-02-24T03:30:44.908Z,82.08
2023-02-24T03:32:10.682Z,82.25
2023-02-24T03:33:36.682Z,82.17
2023-02-24T03:35:26.721Z,82.30
2023-02-24T03:36:31.446Z,82.18
2023-02-24T03:37:37.264Z,82.00
2023-02-24T03:38:44.131Z,81.96
2023-02-24T03:39:53.554Z,82.29
2023-02-24T03:40:59.335Z,81.83
2023-02-24T03:42:25.445Z,81.64
2023-02-24T03:43:36.942Z,81.90
2023-02-24T03:44:41.939Z,81.86
2023-02-24T03:45:47.318Z,81.54
2023-02-24T03:46:55.444Z,81.55
2023-02-24T03:48:04.039Z,81.64
2023-02-24T03:49:16.599Z,81.49
2023-02-24T03:50:22.462Z,81.76
2023-02-24T03:51:27.952Z,81.84
2023-02-24T03:52:32.778Z,82.17
2023-02-24T03:54:11.401Z,82.44
2023-02-24T03:56:01.776Z,82.78
2023-02-24T03:58:01.386Z,82.65
2023-02-24T03:59:53.223Z,84.52
2023-02-24T04:01:09.943Z,84.47
2023-02-24T04:02:27.015Z,84.64
2023-02-24T04:03:58.308Z,85.71
2023-02-24T04:05:22.839Z,88.38
2023-02-24T04:06:56.098Z,88.97
2023-02-24T04:08:08.197Z,89.87
2023-02-24T04:09:27.646Z,92.21
2023-02-24T04:10:53.088Z,93.84
2023-02-24T04:12:17.681Z,94.42
2023-02-24T04:13:47.475Z,94.88
2023-02-24T04:15:20.023Z,94.78
2023-02-24T04:16:36.662Z,95.71
2023-02-24T04:17:46.793Z,96.00
2023-02-24T04:18:53.305Z,95.55
2023-02-24T04:20:10.609Z,95.34
2023-02-24T04:21:19.618Z,95.65
2023-02-24T04:22:27.441Z,96.36
2023-02-24T04:23:39.605Z,96.44
2023-02-24T04:24:50.678Z,96.86
2023-02-24T04:25:58.316Z,95.96
2023-02-24T04:27:08.302Z,95.86
2023-02-24T04:28:15.363Z,95.70
2023-02-24T04:29:24.885Z,95.35
2023-02-24T04:30:36.129Z,95.89
2023-02-24T04:31:40.844Z,95.34
2023-02-24T04:32:45.183Z,95.44
2023-02-24T04:33:53.518Z,94.80
2023-02-24T04:35:13.155Z,94.99
2023-02-24T04:36:19.122Z,95.11
2023-02-24T04:37:23.335Z,94.58
2023-02-24T04:38:27.726Z,94.78
2023-02-24T04:39:32.601Z,95.09
2023-02-24T04:40:37.014Z,95.20
2023-02-24T04:41:40.928Z,95.04
2023-02-24T04:42:49.254Z,94.68
2023-02-24T04:43:53.315Z,94.71
2023-02-24T04:44:58.805Z,94.54
2023-02-24T04:46:07.992Z,94.61
2023-02-24T04:47:12.942Z,94.43
2023-02-24T04:48:17.051Z,94.84
2023-02-24T04:49:22.437Z,94.97
2023-02-24T04:50:28.741Z,94.89
2023-02-24T04:51:34.132Z,94.86
2023-02-24T04:52:38.987Z,94.66
2023-02-24T04:53:43.243Z,94.58
2023-02-24T04:54:48.425Z,94.52
2023-02-24T04:55:53.752Z,94.85
2023-02-24T04:56:59.228Z,94.96
2023-02-24T04:58:04.333Z,94.95
2023-02-24T04:59:10.774Z,94.82
2023-02-24T05:00:22.993Z,94.63
2023-02-24T05:01:27.274Z,94.74
2023-02-24T05:02:31.955Z,95.15
2023-02-24T05:03:36.951Z,95.04
2023-02-24T05:04:42.443Z,95.22
2023-02-24T05:05:57.062Z,95.32
2023-02-24T05:07:01.360Z,95.33
2023-02-24T05:08:11.083Z,95.31
2023-02-24T05:09:18.416Z,95.19
2023-02-24T05:10:28.223Z,95.26
2023-02-24T05:11:35.437Z,95.53
2023-02-24T05:12:40.247Z,95.17
2023-02-24T05:13:47.967Z,95.62
2023-02-24T05:14:55.148Z,95.33
2023-02-24T05:16:08.366Z,95.20
2023-02-24T05:17:14.489Z,95.71
2023-02-24T05:18:18.767Z,95.76
2023-02-24T05:19:41.343Z,95.70
2023-02-24T05:21:07.997Z,95.70
2023-02-24T05:22:14.666Z,96.01
2023-02-24T05:23:18.832Z,95.72
2023-02-24T05:24:23.064Z,95.70
2023-02-24T05:25:27.398Z,96.04
2023-02-24T05:26:32.300Z,95.74
2023-02-24T05:27:39.339Z,95.76
2023-02-24T05:28:52.713Z,95.86
2023-02-24T05:29:57.612Z,96.11
2023-02-24T05:31:34.771Z,96.49
2023-02-24T05:32:39.473Z,96.50
2023-02-24T05:33:46.630Z,96.34
2023-02-24T05:34:50.606Z,96.40
2023-02-24T05:35:56.760Z,96.83
2023-02-24T05:37:10.989Z,97.29
2023-02-24T05:38:19.908Z,97.94
2023-02-24T05:39:26.849Z,97.96
2023-02-24T05:40:31.336Z,97.42
2023-02-24T05:41:42.026Z,97.70
2023-02-24T05:42:47.382Z,98.41
2023-02-24T05:43:56.649Z,98.51
2023-02-24T05:45:02.394Z,98.42
2023-02-24T05:46:07.374Z,98.20
2023-02-24T05:47:11.953Z,98.73
2023-02-24T05:48:16.881Z,98.54
2023-02-24T05:49:27.302Z,99.01
2023-02-24T05:50:32.466Z,99.44
2023-02-24T05:51:39.613Z,99.89
2023-02-24T05:52:46.149Z,99.58
2023-02-24T05:53:55.758Z,99.60
2023-02-24T05:55:03.028Z,99.38
2023-02-24T05:56:09.469Z,99.35
2023-02-24T05:57:21.196Z,100.00
2023-02-24T05:58:29.312Z,100.00
2023-02-24T05:59:35.201Z,99.94
2023-02-24T06:00:40.625Z,99.98
2023-02-24T06:01:48.860Z,100.00
2023-02-24T06:02:53.255Z,100.00
2023-02-24T06:04:07.551Z,100.00
2023-02-24T06:05:25.605Z,100.00
2023-02-24T06:06:31.467Z,100.00
2023-02-24T06:07:36.254Z,100.00
2023-02-24T06:08:50.100Z,100.00
2023-02-24T06:10:00.373Z,100.00
2023-02-24T06:11:04.915Z,100.00
2023-02-24T06:12:16.806Z,100.00
2023-02-24T06:13:23.211Z,99.99
2023-02-24T06:14:29.044Z,100.00
2023-02-24T06:15:37.768Z,100.00
2023-02-24T06:16:51.728Z,100.00
2023-02-24T06:18:20.326Z,100.00
2023-02-24T06:19:27.505Z,100.00
2023-02-24T06:20:37.815Z,100.00
2023-02-24T06:21:46.983Z,100.00
2023-02-24T06:22:57.780Z,100.00
2023-02-24T06:24:02.764Z,100.00
2023-02-24T06:25:11.807Z,100.00
2023-02-24T06:26:19.728Z,100.00
2023-02-24T06:27:25.583Z,99.95
2023-02-24T06:28:34.109Z,100.00
2023-02-24T06:29:39.280Z,100.00
2023-02-24T06:30:43.889Z,100.00
2023-02-24T06:31:50.135Z,100.00
2023-02-24T06:32:57.654Z,100.00
2023-02-24T06:34:03.914Z,100.00
2023-02-24T06:35:09.761Z,100.00
2023-02-24T06:36:15.542Z,100.00
2023-02-24T06:37:21.196Z,100.00
2023-02-24T06:38:26.327Z,100.00
2023-02-24T06:39:36.186Z,100.00
2023-02-24T06:40:42.898Z,100.00
2023-02-24T06:41:53.077Z,100.00
2023-02-24T06:42:57.285Z,100.00
2023-02-24T06:44:01.875Z,100.00
2023-02-24T06:45:08.756Z,100.00
2023-02-24T06:46:16.520Z,100.00
2023-02-24T06:47:23.092Z,100.00
2023-02-24T06:48:29.241Z,100.00
2023-02-24T06:49:37.984Z,100.00
2023-02-24T06:50:46.772Z,100.00
2023-02-24T06:52:03.695Z,100.00
2023-02-24T06:53:17.117Z,100.00
2023-02-24T06:54:30.994Z,100.00
2023-02-24T06:55:37.022Z,100.00
2023-02-24T06:56:44.426Z,100.00
2023-02-24T06:58:04.507Z,100.00
2023-02-24T06:59:16.341Z,100.00
2023-02-24T07:00:36.880Z,100.00
2023-02-24T07:01:47.196Z,100.00
2023-02-24T07:02:54.604Z,100.00
2023-02-24T07:04:08.262Z,100.00
2023-02-24T07:05:15.301Z,100.00
2023-02-24T07:06:26.829Z,100.00
2023-02-24T07:07:32.206Z,100.00
2023-02-24T07:08:41.413Z,100.00
2023-02-24T07:09:46.154Z,100.00
2023-02-24T07:11:01.515Z,100.00
2023-02-24T07:12:11.784Z,100.00
2023-02-24T07:13:17.212Z,100.00
2023-02-24T07:14:27.150Z,99.98
2023-02-24T07:15:32.370Z,100.00
2023-02-24T07:16:39.627Z,99.78
2023-02-24T07:17:48.280Z,99.50
2023-02-24T07:19:00.153Z,99.46
2023-02-24T07:20:12.473Z,99.16
2023-02-24T07:21:18.432Z,99.34
2023-02-24T07:22:26.092Z,99.41
2023-02-24T07:23:30.664Z,99.45
2023-02-24T07:24:40.961Z,99.30
2023-02-24T07:25:46.850Z,99.11
2023-02-24T07:27:01.383Z,99.03
2023-02-24T07:28:07.607Z,99.18
2023-02-24T07:29:13.575Z,99.08
2023-02-24T07:30:18.825Z,99.12
2023-02-24T07:31:26.099Z,99.02
2023-02-24T07:32:33.682Z,98.85
2023-02-24T07:33:46.796Z,98.86
2023-02-24T07:34:52.139Z,99.10
2023-02-24T07:35:58.147Z,98.68
2023-02-24T07:37:08.510Z,98.92
2023-02-24T07:38:17.855Z,98.63
2023-02-24T07:39:24.355Z,98.61
2023-02-24T07:40:30.109Z,98.56
2023-02-24T07:41:38.023Z,98.73
2023-02-24T07:42:42.579Z,98.74
2023-02-24T07:43:46.770Z,98.58
2023-02-24T07:44:52.533Z,98.52
2023-02-24T07:45:58.285Z,98.26
2023-02-24T07:47:08.076Z,98.29
2023-02-24T07:48:15.986Z,98.22
2023-02-24T07:49:26.407Z,98.18
2023-02-24T07:50:33.060Z,98.08
2023-02-24T07:51:37.532Z,98.38
2023-02-24T07:52:51.294Z,98.31
2023-02-24T07:54:01.780Z,98.30
2023-02-24T07:55:11.563Z,98.12
2023-02-24T07:56:20.885Z,97.71
2023-02-24T07:57:26.182Z,97.92
2023-02-24T07:58:34.636Z,97.72
2023-02-24T07:59:40.408Z,97.54
2023-02-24T08:01:00.014Z,97.59
2023-02-24T08:02:07.940Z,97.41
2023-02-24T08:03:13.806Z,97.11
2023-02-24T08:04:30.869Z,97.35
2023-02-24T08:05:36.698Z,97.14
2023-02-24T08:06:48.085Z,97.09
2023-02-24T08:07:53.155Z,97.16
2023-02-24T08:09:01.330Z,97.31
2023-02-24T08:10:12.371Z,96.81
2023-02-24T08:11:16.425Z,97.01
2023-02-24T08:12:23.403Z,96.98
2023-02-24T08:13:37.777Z,96.93
2023-02-24T08:14:45.009Z,96.81
2023-02-24T08:15:56.848Z,96.37
2023-02-24T08:17:05.642Z,95.95
2023-02-24T08:18:10.231Z,95.81
2023-02-24T08:19:21.259Z,95.59
2023-02-24T08:20:30.377Z,95.89
2023-02-24T08:21:41.612Z,96.01
2023-02-24T08:22:47.644Z,95.73
2023-02-24T08:23:53.308Z,95.53
2023-02-24T08:25:06.582Z,95.07
2023-02-24T08:26:13.181Z,94.68
2023-02-24T08:27:31.079Z,94.15
2023-02-24T08:28:36.543Z,93.57
2023-02-24T08:29:58.239Z,93.44
2023-02-24T08:31:05.203Z,93.46
2023-02-24T08:32:11.066Z,93.27
2023-02-24T08:33:23.386Z,93.01
2023-02-24T08:34:32.143Z,91.83
2023-02-24T08:35:45.322Z,91.96
2023-02-24T08:36:56.138Z,92.03
2023-02-24T08:38:14.905Z,91.59
2023-02-24T08:39:19.650Z,91.88
2023-02-24T08:40:33.156Z,91.83
2023-02-24T08:41:55.168Z,92.02
2023-02-24T08:43:18.230Z,92.24
2023-02-24T08:44:23.484Z,91.07
2023-02-24T08:45:38.963Z,91.28
2023-02-24T08:46:49.631Z,91.65
2023-02-24T08:48:00.950Z,90.58
2023-02-24T08:49:11.364Z,90.80
2023-02-24T08:50:16.563Z,90.36
2023-02-24T08:51:44.146Z,90.45
2023-02-24T08:52:49.412Z,90.49
2023-02-24T08:54:00.194Z,90.52
2023-02-24T08:55:10.844Z,89.86
2023-02-24T08:56:24.611Z,90.08
2023-02-24T08:57:29.257Z,89.68
2023-02-24T08:58:33.654Z,89.69
2023-02-24T08:59:38.957Z,89.45
2023-02-24T09:01:00.254Z,89.25
2023-02-24T09:02:23.749Z,89.05
2023-02-24T09:03:30.250Z,89.15
2023-02-24T09:04:35.396Z,88.83
2023-02-24T09:05:40.465Z,89.06
2023-02-24T09:07:10.675Z,89.23
2023-02-24T09:08:16.048Z,88.55
2023-02-24T09:09:22.770Z,88.71
2023-02-24T09:10:28.879Z,88.27
2023-02-24T09:11:32.903Z,87.75
2023-02-24T09:12:41.692Z,88.26
2023-02-24T09:13:53.700Z,87.86
2023-02-24T09:15:05.068Z,87.75
2023-02-24T09:16:17.053Z,87.87
2023-02-24T09:17:54.135Z,87.40
2023-02-24T09:19:37.409Z,86.33
2023-02-24T09:21:16.677Z,85.30
2023-02-24T09:22:32.139Z,85.32
2023-02-24T09:23:46.742Z,85.34
2023-02-24T09:25:18.413Z,85.51
2023-02-24T09:26:24.420Z,85.30
2023-02-24T09:27:29.940Z,85.56
2023-02-24T09:28:48.952Z,84.20
2023-02-24T09:30:08.351Z,84.41
2023-02-24T09:31:17.445Z,84.13
2023-02-24T09:32:22.905Z,84.28
2023-02-24T09:33:42.407Z,84.42
2023-02-24T09:34:48.230Z,84.22
2023-02-24T09:36:25.484Z,84.07
2023-02-24T09:37:32.499Z,83.76
2023-02-24T09:38:58.786Z,84.30
2023-02-24T09:40:33.632Z,84.50
2023-02-24T09:41:54.954Z,84.29
2023-02-24T09:42:59.826Z,83.87
2023-02-24T09:44:18.751Z,83.59
2023-02-24T09:45:33.747Z,84.51
2023-02-24T09:46:56.496Z,84.10
2023-02-24T09:48:24.387Z,84.16
2023-02-24T09:50:04.506Z,83.38
2023-02-24T09:51:34.074Z,83.05
2023-02-24T09:53:00.115Z,82.97
2023-02-24T09:54:18.152Z,82.86
2023-02-24T09:56:04.106Z,81.51
2023-02-24T09:57:25.738Z,81.56
2023-02-24T09:59:13.720Z,81.63
2023-02-24T10:00:28.501Z,81.75
2023-02-24T10:02:44.621Z,81.36
2023-02-24T10:04:23.248Z,80.99
2023-02-24T10:05:49.550Z,81.13
2023-02-24T10:07:04.618Z,81.36
2023-02-24T10:08:26.046Z,80.46
2023-02-24T10:10:20.270Z,80.91
2023-02-24T10:11:35.178Z,80.59
2023-02-24T10:13:30.666Z,80.49
2023-02-24T10:15:19.317Z,80.42
2023-02-24T10:16:44.140Z,80.81
2023-02-24T10:18:00.432Z,80.73
2023-02-24T10:19:36.433Z,80.69
2023-02-24T10:20:54.310Z,80.37
2023-02-24T10:22:52.799Z,80.29
2023-02-24T10:24:07.927Z,80.25
2023-02-24T10:25:40.029Z,79.57
2023-02-24T10:27:01.261Z,79.38
2023-02-24T10:28:45.771Z,79.50
2023-02-24T10:30:26.601Z,79.25
2023-02-24T10:31:58.201Z,79.40
2023-02-24T10:33:36.698Z,79.25
2023-02-24T10:34:47.200Z,79.30
2023-02-24T10:36:09.844Z,79.38
2023-02-24T10:37:29.094Z,79.17
2023-02-24T10:38:41.562Z,79.27
2023-02-24T10:39:52.003Z,79.22
2023-02-24T10:41:07.062Z,78.94
2023-02-24T10:42:26.169Z,79.24
2023-02-24T10:43:32.789Z,79.18
2023-02-24T10:44:39.468Z,79.26
2023-02-24T10:45:47.987Z,79.01
2023-02-24T10:47:14.374Z,78.42
2023-02-24T10:48:40.738Z,78.88
2023-02-24T10:49:58.332Z,78.66
2023-02-24T10:51:37.613Z,79.00
2023-02-24T10:53:11.956Z,79.79
2023-02-24T10:54:34.216Z,79.74
2023-02-24T10:55:48.531Z,80.42
2023-02-24T10:57:08.278Z,80.00
2023-02-24T10:58:29.591Z,80.41
2023-02-24T11:00:17.006Z,80.04
2023-02-24T11:01:41.315Z,79.48
2023-02-24T11:03:11.102Z,78.88
2023-02-24T11:04:28.675Z,78.49
2023-02-24T11:05:56.776Z,77.69
2023-02-24T11:07:24.998Z,77.45
2023-02-24T11:09:05.429Z,77.36
2023-02-24T11:10:34.698Z,77.17
2023-02-24T11:12:03.703Z,77.04
2023-02-24T11:15:38.716Z,77.33
2023-02-24T11:17:15.053Z,77.77
2023-02-24T11:18:32.872Z,77.89
2023-02-24T11:20:06.979Z,77.55
2023-02-24T11:21:21.452Z,77.21
2023-02-24T11:22:42.578Z,77.21
2023-02-24T11:23:59.963Z,77.27
2023-02-24T11:25:15.078Z,77.18
2023-02-24T11:26:32.627Z,77.44
2023-02-24T11:27:36.729Z,77.44
2023-02-24T11:28:57.043Z,76.89
2023-02-24T11:30:26.944Z,76.21
2023-02-24T11:31:56.914Z,76.51
2023-02-24T11:33:30.329Z,76.17
2023-02-24T11:35:20.062Z,76.23
2023-02-24T11:36:58.922Z,75.76
2023-02-24T11:38:28.344Z,75.67
2023-02-24T11:39:46.463Z,75.45
2023-02-24T11:41:27.976Z,75.15
2023-02-24T11:42:40.253Z,75.23
2023-02-24T11:44:01.054Z,75.14
2023-02-24T11:45:34.962Z,75.37
2023-02-24T11:46:58.256Z,75.13
2023-02-24T11:48:20.962Z,74.58
2023-02-24T11:49:45.717Z,74.47
2023-02-24T11:51:05.318Z,74.00
2023-02-24T11:52:33.477Z,73.66
2023-02-24T11:54:11.143Z,73.30
2023-02-24T11:55:43.354Z,73.26
2023-02-24T11:57:04.825Z,73.14
2023-02-24T11:58:36.381Z,72.98
2023-02-24T11:59:55.061Z,72.90
2023-02-24T12:01:16.243Z,72.82
2023-02-24T12:02:39.136Z,72.90
2023-02-24T12:04:34.228Z,72.61
2023-02-24T12:05:50.173Z,71.57
2023-02-24T12:07:39.153Z,71.49
2023-02-24T12:08:53.824Z,71.50
2023-02-24T12:10:17.732Z,71.05
2023-02-24T12:11:39.585Z,71.34
2023-02-24T12:13:10.920Z,71.22
2023-02-24T12:14:43.655Z,71.13
2023-02-24T12:15:56.760Z,71.14
2023-02-24T12:17:31.516Z,71.27
2023-02-24T12:19:12.904Z,71.31
2023-02-24T12:20:31.456Z,70.78
2023-02-24T12:21:46.316Z,70.73
2023-02-24T12:23:02.045Z,71.01
2023-02-24T12:24:12.927Z,71.13
2023-02-24T12:25:45.170Z,71.06
2023-02-24T12:27:39.656Z,71.17
2023-02-24T12:29:10.330Z,71.29
2023-02-24T12:30:58.180Z,71.32
2023-02-24T12:32:26.886Z,71.35
2023-02-24T12:34:01.026Z,71.57
2023-02-24T12:35:57.011Z,72.00
2023-02-24T12:37:38.494Z,71.85
2023-02-24T12:39:14.418Z,71.76
2023-02-24T12:40:39.289Z,72.01
2023-02-24T12:42:38.386Z,72.08
2023-02-24T12:44:41.714Z,71.87
2023-02-24T12:46:14.789Z,71.60
2023-02-24T12:47:40.706Z,71.02
2023-02-24T12:49:10.549Z,71.00
2023-02-24T12:50:55.127Z,71.05
2023-02-24T12:54:07.574Z,71.07
2023-02-24T12:56:02.541Z,70.80
2023-02-24T12:57:57.202Z,70.39
2023-02-24T12:59:11.634Z,71.30
2023-02-24T13:00:53.197Z,71.57
2023-02-24T13:02:18.181Z,72.38
2023-02-24T13:03:48.542Z,72.82
2023-02-24T13:05:22.950Z,73.91
2023-02-24T13:06:54.313Z,74.31
2023-02-24T13:08:32.549Z,75.12
2023-02-24T13:10:02.103Z,75.42
2023-02-24T13:11:37.095Z,76.50
2023-02-24T13:13:04.159Z,77.97
2023-02-24T13:14:24.866Z,78.22
2023-02-24T13:15:34.007Z,79.10
2023-02-24T13:16:38.610Z,79.35
2023-02-24T13:17:58.870Z,81.22
2023-02-24T13:19:39.838Z,83.01
2023-02-24T13:20:45.505Z,84.01
2023-02-24T13:22:26.542Z,83.58
2023-02-24T13:23:44.170Z,83.30
2023-02-24T13:25:38.679Z,83.70
2023-02-24T13:26:47.573Z,83.98
2023-02-24T13:28:27.719Z,84.20
2023-02-24T13:29:51.687Z,84.06
2023-02-24T13:31:10.993Z,84.43
2023-02-24T13:32:39.658Z,84.28
2023-02-24T13:34:00.620Z,85.20
2023-02-24T13:35:31.057Z,85.12
2023-02-24T13:38:42.347Z,86.13
2023-02-24T13:39:49.023Z,85.19
2023-02-24T13:41:08.581Z,85.03
2023-02-24T13:42:29.861Z,85.14
2023-02-24T13:43:34.907Z,84.75
2023-02-24T13:44:53.549Z,84.03
2023-02-24T13:46:19.058Z,84.32
2023-02-24T13:48:15.426Z,83.57
2023-02-24T13:50:15.966Z,83.07
2023-02-24T13:51:59.658Z,82.30
2023-02-24T13:53:32.171Z,82.26
2023-02-24T13:55:15.230Z,81.66
2023-02-24T13:56:57.472Z,82.75
2023-02-24T13:58:27.024Z,82.36
2023-02-24T14:00:13.847Z,83.85
2023-02-24T14:01:21.379Z,83.00
2023-02-24T14:02:31.373Z,82.14
2023-02-24T14:03:40.539Z,81.31
2023-02-24T14:04:55.917Z,81.22
2023-02-24T14:06:02.306Z,81.72
2023-02-24T14:07:21.592Z,81.82
2023-02-24T14:09:10.747Z,80.96
2023-02-24T14:10:28.910Z,80.36
2023-02-24T14:11:39.018Z,80.64
2023-02-24T14:12:52.954Z,80.61
2023-02-24T14:14:09.809Z,79.46
2023-02-24T14:15:22.655Z,79.42
2023-02-24T14:16:43.947Z,79.50
2023-02-24T14:18:04.009Z,78.55
2023-02-24T14:19:30.252Z,78.31
2023-02-24T14:20:44.386Z,77.07
2023-02-24T14:22:00.080Z,76.66
2023-02-24T14:23:35.864Z,75.65
2023-02-24T14:24:43.845Z,75.96
2023-02-24T14:27:00.637Z,76.19
2023-02-24T14:28:03.508Z,75.84
2023-02-24T14:31:42.951Z,75.16
2023-02-24T14:33:05.891Z,75.37
2023-02-24T14:34:23.114Z,74.96
2023-02-24T14:36:15.062Z,75.07
2023-02-24T14:37:46.352Z,75.46
2023-02-24T14:39:31.419Z,74.57
2023-02-24T14:41:32.790Z,73.46
2023-02-24T14:45:28.736Z,73.41
2023-02-24T14:46:52.381Z,73.29
2023-02-24T14:48:04.110Z,72.81
2023-02-24T14:50:33.147Z,72.29
2023-02-24T14:54:58.525Z,72.49
2023-02-24T14:56:34.365Z,72.13
2023-02-24T14:58:39.796Z,71.62
2023-02-24T15:00:01.483Z,71.42
2023-02-24T15:02:05.517Z,71.68
2023-02-24T15:03:54.831Z,71.56
2023-02-24T15:05:18.007Z,71.15
2023-02-24T15:06:50.742Z,70.80
2023-02-24T15:08:05.841Z,70.56
2023-02-24T15:09:26.615Z,70.50
2023-02-24T15:10:35.650Z,70.61
2023-02-24T15:11:51.125Z,70.59
2023-02-24T15:13:12.870Z,70.62
2023-02-24T15:14:27.787Z,71.03
2023-02-24T15:15:46.640Z,71.26
2023-02-24T15:17:03.427Z,70.77
2023-02-24T15:18:26.825Z,70.53
2023-02-24T15:19:49.586Z,70.32
2023-02-24T15:21:31.745Z,70.51
2023-02-24T15:22:41.825Z,70.60
2023-02-24T15:23:48.830Z,71.52
2023-02-24T15:25:24.051Z,72.09
2023-02-24T15:26:43.629Z,72.13
2023-02-24T15:28:18.936Z,72.56
2023-02-24T15:29:35.493Z,73.09
2023-02-24T15:31:10.935Z,73.76
2023-02-24T15:32:56.792Z,73.86
2023-02-24T15:34:44.191Z,73.70
2023-02-24T15:36:09.528Z,74.35
2023-02-24T15:37:49.575Z,75.03
2023-02-24T15:39:04.378Z,75.88
2023-02-24T15:42:24.555Z,78.30
2023-02-24T15:43:51.358Z,78.15
2023-02-24T15:47:03.888Z,81.02
2023-02-24T15:48:49.346Z,83.31
2023-02-24T15:50:17.175Z,85.01
2023-02-24T15:51:58.274Z,87.27
2023-02-24T15:53:27.274Z,88.78
2023-02-24T15:54:46.808Z,88.96
2023-02-24T15:56:25.791Z,90.77
2023-02-24T15:57:45.443Z,91.63
2023-02-24T15:59:02.747Z,92.26
2023-02-24T16:00:44.590Z,93.08
2023-02-24T16:01:52.393Z,92.88
2023-02-24T16:03:23.879Z,92.13
2023-02-24T16:05:01.766Z,91.82
2023-02-24T16:06:26.510Z,92.78
2023-02-24T16:07:39.417Z,93.40
2023-02-24T16:09:13.378Z,92.59
2023-02-24T16:10:34.205Z,92.27
2023-02-24T16:11:57.924Z,92.45
2023-02-24T16:13:17.608Z,92.75
2023-02-24T16:14:22.528Z,92.88
2023-02-24T16:15:56.100Z,94.12
2023-02-24T16:17:34.476Z,94.95
2023-02-24T16:18:59.974Z,95.46
2023-02-24T16:20:41.010Z,95.27
2023-02-24T16:21:53.644Z,95.92
2023-02-24T16:23:16.795Z,96.00
2023-02-24T16:24:29.411Z,95.55
2023-02-24T16:26:32.282Z,95.91
2023-02-24T16:28:04.861Z,95.84
2023-02-24T16:29:29.952Z,95.96
2023-02-24T16:30:58.612Z,95.82
2023-02-24T16:34:31.642Z,95.82
2023-02-24T16:36:10.324Z,96.17
2023-02-24T16:37:52.172Z,95.74
2023-02-24T16:39:05.714Z,95.37
2023-02-24T16:40:38.229Z,95.59
2023-02-24T16:41:58.387Z,95.51
2023-02-24T16:44:44.875Z,95.21
2023-02-24T16:47:33.537Z,95.01
2023-02-24T16:49:14.344Z,95.77
2023-02-24T16:50:50.156Z,95.57
2023-02-24T16:53:50.483Z,95.11
2023-02-24T16:55:13.858Z,95.48
2023-02-24T16:59:34.725Z,95.24
2023-02-24T17:04:31.262Z,95.44
2023-02-24T17:10:51.910Z,95.54
2023-02-24T17:12:01.472Z,95.82